createdAt,value
2022-08-22T00:00:54.475Z,18.61
2022-08-22T00:02:46.732Z,19.65
2022-08-22T00:03:30.338Z,18.57
2022-08-22T00:06:12.733Z,18.56
2022-08-22T00:08:48.476Z,18.52
2022-08-22T00:11:19.054Z,18.54
2022-08-22T00:14:01.227Z,18.51
2022-08-22T00:16:33.193Z,18.42
2022-08-22T00:19:07.037Z,18.46
2022-08-22T00:21:38.125Z,18.40
2022-08-22T00:24:11.267Z,18.39
2022-08-22T00:26:45.252Z,18.39
2022-08-22T00:29:15.086Z,18.37
2022-08-22T00:31:46.754Z,18.32
2022-08-22T00:34:19.374Z,18.35
2022-08-22T00:36:49.473Z,18.31
2022-08-22T00:39:17.995Z,18.33
2022-08-22T00:41:52.557Z,18.32
2022-08-22T00:44:41.962Z,18.30
2022-08-22T00:47:19.811Z,18.29
2022-08-22T00:49:58.003Z,18.27
2022-08-22T00:52:40.271Z,18.22
2022-08-22T00:55:33.896Z,18.19
2022-08-22T00:58:11.532Z,18.19
2022-08-22T01:00:43.255Z,18.15
2022-08-22T01:03:16.602Z,18.15
2022-08-22T01:05:56.059Z,18.14
2022-08-22T01:08:32.027Z,17.78
2022-08-22T01:11:06.446Z,18.06
2022-08-22T01:13:43.324Z,18.03
2022-08-22T01:16:19.947Z,18.02
2022-08-22T01:18:55.390Z,18.00
2022-08-22T01:21:43.662Z,17.99
2022-08-22T01:24:25.970Z,18.00
2022-08-22T01:27:06.272Z,17.94
2022-08-22T01:29:48.460Z,17.91
2022-08-22T01:32:53.925Z,17.91
2022-08-22T01:35:48.634Z,17.88
2022-08-22T01:38:26.910Z,17.86
2022-08-22T01:41:17.152Z,17.87
2022-08-22T01:43:59.655Z,17.85
2022-08-22T01:46:33.768Z,17.85
2022-08-22T01:49:05.958Z,17.81
2022-08-22T01:51:39.870Z,17.80
2022-08-22T01:54:10.402Z,17.81
2022-08-22T01:56:41.512Z,17.79
2022-08-22T01:59:10.946Z,17.76
2022-08-22T02:01:48.355Z,17.76
2022-08-22T02:04:20.000Z,17.75
2022-08-22T02:06:52.629Z,17.74
2022-08-22T02:09:30.635Z,17.72
2022-08-22T02:12:01.196Z,17.69
2022-08-22T02:14:41.714Z,17.67
2022-08-22T02:17:14.142Z,17.66
2022-08-22T02:19:45.625Z,17.67
2022-08-22T02:22:20.804Z,17.63
2022-08-22T02:24:52.091Z,17.61
2022-08-22T02:27:31.329Z,17.61
2022-08-22T02:30:02.459Z,17.58
2022-08-22T02:32:37.129Z,17.58
2022-08-22T02:35:09.204Z,17.58
2022-08-22T02:37:38.738Z,17.60
2022-08-22T02:40:14.755Z,17.58
2022-08-22T02:42:44.846Z,17.54
2022-08-22T02:45:25.745Z,17.51
2022-08-22T02:47:57.901Z,17.54
2022-08-22T02:50:29.932Z,17.53
2022-08-22T02:52:59.486Z,17.50
2022-08-22T02:55:39.842Z,17.50
2022-08-22T02:58:09.706Z,17.49
2022-08-22T03:00:45.537Z,17.49
2022-08-22T03:03:16.848Z,17.47
2022-08-22T03:05:49.170Z,17.47
2022-08-22T03:08:21.454Z,17.48
2022-08-22T03:11:00.383Z,17.47
2022-08-22T03:13:34.596Z,17.46
2022-08-22T03:16:07.791Z,17.48
2022-08-22T03:18:44.225Z,17.16
2022-08-22T03:21:16.404Z,17.18
2022-08-22T03:23:46.444Z,17.45
2022-08-22T03:26:18.354Z,17.45
2022-08-22T03:28:59.313Z,17.44
2022-08-22T03:31:29.024Z,17.41
2022-08-22T03:34:16.814Z,17.42
2022-08-22T03:36:47.718Z,17.39
2022-08-22T03:39:18.781Z,17.39
2022-08-22T03:42:01.045Z,17.36
2022-08-22T03:44:47.020Z,17.36
2022-08-22T03:47:32.504Z,17.37
2022-08-22T03:50:18.689Z,16.97
2022-08-22T03:53:10.297Z,17.28
2022-08-22T03:56:08.574Z,17.30
2022-08-22T03:58:41.135Z,17.32
2022-08-22T04:01:19.246Z,17.29
2022-08-22T04:04:08.623Z,17.32
2022-08-22T04:06:56.509Z,17.31
2022-08-22T04:09:52.438Z,17.32
2022-08-22T04:12:42.418Z,17.29
2022-08-22T04:15:25.783Z,17.27
2022-08-22T04:18:01.984Z,17.29
2022-08-22T04:20:45.375Z,17.31
2022-08-22T04:23:28.085Z,17.29
2022-08-22T04:25:59.536Z,17.31
2022-08-22T04:28:35.730Z,17.30
2022-08-22T04:31:05.953Z,17.26
2022-08-22T04:33:36.082Z,17.28
2022-08-22T04:36:06.060Z,17.29
2022-08-22T04:38:37.778Z,17.31
2022-08-22T04:41:08.656Z,17.35
2022-08-22T04:43:38.572Z,17.34
2022-08-22T04:46:10.627Z,17.31
2022-08-22T04:48:40.600Z,17.29
2022-08-22T04:51:11.879Z,17.33
2022-08-22T04:53:53.246Z,17.31
2022-08-22T04:56:25.967Z,17.34
2022-08-22T04:58:55.785Z,17.36
2022-08-22T05:01:25.788Z,17.37
2022-08-22T05:03:55.880Z,17.33
2022-08-22T05:06:24.654Z,17.35
2022-08-22T05:08:54.580Z,17.44
2022-08-22T05:11:24.442Z,17.45
2022-08-22T05:13:53.571Z,17.52
2022-08-22T05:16:22.857Z,17.52
2022-08-22T05:18:52.134Z,17.56
2022-08-22T05:21:23.481Z,17.57
2022-08-22T05:23:59.989Z,17.61
2022-08-22T05:26:28.445Z,17.64
2022-08-22T05:28:58.448Z,17.64
2022-08-22T05:31:28.405Z,17.62
2022-08-22T05:33:57.681Z,17.69
2022-08-22T05:36:26.179Z,17.71
2022-08-22T05:38:57.058Z,17.75
2022-08-22T05:41:27.750Z,17.78
2022-08-22T05:43:55.639Z,17.82
2022-08-22T05:46:27.143Z,17.87
2022-08-22T05:48:57.502Z,17.89
2022-08-22T05:51:27.101Z,17.88
2022-08-22T05:54:00.993Z,17.92
2022-08-22T05:56:35.059Z,18.00
2022-08-22T05:59:08.162Z,17.99
2022-08-22T06:01:39.407Z,18.06
2022-08-22T06:04:09.069Z,18.18
2022-08-22T06:06:42.403Z,18.22
2022-08-22T06:09:14.066Z,18.26
2022-08-22T06:11:51.576Z,18.33
2022-08-22T06:14:24.976Z,18.36
2022-08-22T06:16:56.957Z,18.36
2022-08-22T06:19:24.891Z,18.47
2022-08-22T06:21:54.500Z,18.52
2022-08-22T06:24:24.720Z,18.56
2022-08-22T06:26:54.903Z,18.63
2022-08-22T06:29:29.525Z,18.68
2022-08-22T06:31:58.045Z,18.57
2022-08-22T06:34:28.213Z,18.64
2022-08-22T06:36:57.286Z,18.80
2022-08-22T06:39:26.158Z,18.54
2022-08-22T06:41:57.677Z,18.80
2022-08-22T06:44:27.161Z,19.03
2022-08-22T06:46:58.296Z,19.02
2022-08-22T06:49:26.839Z,19.04
2022-08-22T06:51:57.524Z,19.10
2022-08-22T06:54:31.438Z,19.02
2022-08-22T06:57:05.051Z,19.22
2022-08-22T06:59:35.303Z,19.29
2022-08-22T07:02:06.953Z,19.25
2022-08-22T07:04:34.549Z,19.49
2022-08-22T07:07:02.541Z,19.68
2022-08-22T07:09:31.857Z,19.49
2022-08-22T07:12:01.685Z,19.59
2022-08-22T07:14:33.080Z,19.67
2022-08-22T07:17:02.127Z,19.78
2022-08-22T07:19:34.121Z,19.82
2022-08-22T07:22:11.041Z,19.81
2022-08-22T07:24:42.329Z,19.59
2022-08-22T07:27:15.991Z,19.91
2022-08-22T07:29:49.004Z,19.71
2022-08-22T07:32:19.658Z,20.16
2022-08-22T07:34:53.848Z,20.54
2022-08-22T07:37:26.939Z,20.75
2022-08-22T07:39:56.113Z,20.94
2022-08-22T07:42:29.759Z,20.80
2022-08-22T07:45:03.970Z,21.00
2022-08-22T07:47:39.246Z,21.28
2022-08-22T07:50:08.394Z,21.47
2022-08-22T07:52:41.149Z,21.56
2022-08-22T07:55:14.000Z,21.64
2022-08-22T07:57:44.324Z,21.79
2022-08-22T08:00:15.992Z,21.78
2022-08-22T08:02:46.090Z,22.04
2022-08-22T08:05:15.425Z,21.81
2022-08-22T08:07:45.084Z,21.96
2022-08-22T08:10:14.224Z,21.99
2022-08-22T08:12:57.974Z,22.11
2022-08-22T08:15:33.080Z,22.71
2022-08-22T08:18:03.828Z,22.88
2022-08-22T08:20:31.727Z,23.19
2022-08-22T08:22:59.938Z,23.25
2022-08-22T08:25:28.891Z,23.71
2022-08-22T08:28:15.795Z,23.64
2022-08-22T08:30:48.138Z,23.81
2022-08-22T08:33:25.285Z,23.33
2022-08-22T08:36:02.923Z,23.90
2022-08-22T08:38:32.340Z,24.43
2022-08-22T08:41:10.724Z,24.56
2022-08-22T08:43:47.861Z,24.42
2022-08-22T08:46:31.126Z,24.26
2022-08-22T08:49:07.791Z,24.20
2022-08-22T08:51:56.888Z,24.16
2022-08-22T08:54:36.832Z,24.69
2022-08-22T08:57:10.748Z,24.90
2022-08-22T08:59:44.191Z,25.12
2022-08-22T09:02:34.988Z,25.35
2022-08-22T09:05:24.564Z,25.66
2022-08-22T09:08:21.286Z,25.80
2022-08-22T09:11:02.848Z,25.32
2022-08-22T09:13:42.445Z,26.24
2022-08-22T09:16:17.458Z,26.60
2022-08-22T09:18:58.986Z,26.51
2022-08-22T09:21:53.348Z,26.75
2022-08-22T09:24:35.639Z,26.66
2022-08-22T09:27:08.534Z,25.75
2022-08-22T09:32:36.041Z,26.34
2022-08-22T09:35:08.036Z,26.56
2022-08-22T09:37:41.287Z,26.52
2022-08-22T09:42:56.083Z,26.62
2022-08-22T09:45:41.036Z,26.77
2022-08-22T09:48:17.793Z,26.47
2022-08-22T09:50:54.525Z,26.56
2022-08-22T09:53:31.254Z,26.59
2022-08-22T09:56:15.264Z,26.57
2022-08-22T09:58:45.198Z,26.59
2022-08-22T10:01:17.319Z,26.84
2022-08-22T10:04:03.398Z,26.72
2022-08-22T10:06:42.270Z,26.35
2022-08-22T10:09:14.417Z,25.73
2022-08-22T10:11:49.522Z,25.48
2022-08-22T10:14:22.197Z,25.82
2022-08-22T10:16:58.068Z,25.95
2022-08-22T10:19:28.558Z,26.05
2022-08-22T10:22:15.191Z,26.10
2022-08-22T10:24:49.031Z,26.11
2022-08-22T10:27:20.655Z,26.40
2022-08-22T10:29:58.960Z,26.73
2022-08-22T10:32:31.725Z,26.82
2022-08-22T10:35:02.762Z,26.77
2022-08-22T10:37:37.547Z,25.82
2022-08-22T10:40:13.673Z,25.40
2022-08-22T10:42:45.613Z,26.02
2022-08-22T10:45:24.036Z,26.26
2022-08-22T10:48:31.669Z,26.25
2022-08-22T10:51:08.833Z,26.38
2022-08-22T10:53:52.987Z,26.77
2022-08-22T10:56:27.463Z,27.54
2022-08-22T10:59:04.141Z,27.31
2022-08-22T11:01:41.012Z,27.26
2022-08-22T11:04:12.902Z,26.69
2022-08-22T11:06:45.421Z,26.84
2022-08-22T11:09:24.787Z,26.73
2022-08-22T11:12:02.527Z,27.02
2022-08-22T11:14:44.998Z,27.51
2022-08-22T11:17:31.171Z,28.01
2022-08-22T11:20:15.746Z,28.17
2022-08-22T11:22:55.635Z,28.75
2022-08-22T11:25:38.437Z,28.22
2022-08-22T11:28:18.764Z,28.14
2022-08-22T11:30:54.686Z,26.88
2022-08-22T11:33:46.365Z,26.23
2022-08-22T11:36:26.324Z,25.63
2022-08-22T11:39:01.526Z,25.96
2022-08-22T11:41:32.352Z,26.22
2022-08-22T11:44:03.756Z,26.58
2022-08-22T11:46:32.432Z,26.41
2022-08-22T11:49:14.736Z,27.10
2022-08-22T11:51:58.339Z,27.22
2022-08-22T11:54:31.265Z,27.70
2022-08-22T11:57:08.345Z,27.68
2022-08-22T11:59:53.089Z,28.06
2022-08-22T12:02:25.676Z,29.12
2022-08-22T12:04:56.314Z,28.75
2022-08-22T12:07:27.696Z,29.03
2022-08-22T12:09:59.472Z,29.11
2022-08-22T12:12:33.230Z,29.11
2022-08-22T12:15:04.347Z,28.51
2022-08-22T12:18:01.484Z,28.49
2022-08-22T12:20:48.566Z,29.64
2022-08-22T12:23:49.443Z,30.35
2022-08-22T12:26:22.093Z,30.57
2022-08-22T12:28:58.730Z,30.50
2022-08-22T12:31:31.596Z,30.92
2022-08-22T12:34:06.501Z,30.08
2022-08-22T12:36:48.914Z,30.57
2022-08-22T12:39:30.526Z,29.16
2022-08-22T12:42:21.818Z,30.05
2022-08-22T12:44:56.205Z,29.69
2022-08-22T12:47:32.156Z,31.29
2022-08-22T12:50:13.123Z,32.11
2022-08-22T12:52:51.504Z,32.95
2022-08-22T12:55:24.886Z,33.45
2022-08-22T12:57:58.867Z,33.06
2022-08-22T13:00:30.605Z,32.54
2022-08-22T13:02:59.872Z,31.60
2022-08-22T13:05:30.129Z,31.55
2022-08-22T13:08:04.568Z,31.53
2022-08-22T13:10:39.084Z,31.39
2022-08-22T13:13:12.047Z,31.01
2022-08-22T13:15:44.947Z,31.11
2022-08-22T13:18:28.698Z,31.87
2022-08-22T13:21:01.959Z,33.55
2022-08-22T13:23:34.268Z,34.31
2022-08-22T13:26:10.086Z,34.14
2022-08-22T13:28:43.157Z,33.94
2022-08-22T13:31:16.171Z,33.94
2022-08-22T13:33:48.108Z,35.12
2022-08-22T13:36:19.852Z,34.78
2022-08-22T13:38:50.056Z,34.21
2022-08-22T13:41:22.540Z,34.71
2022-08-22T13:44:02.437Z,35.75
2022-08-22T13:46:31.171Z,36.28
2022-08-22T13:49:07.068Z,36.80
2022-08-22T13:51:41.074Z,37.27
2022-08-22T13:54:21.508Z,37.18
2022-08-22T13:56:56.146Z,37.54
2022-08-22T13:59:50.285Z,37.40
2022-08-22T14:02:24.953Z,37.65
2022-08-22T14:05:02.324Z,37.56
2022-08-22T14:07:36.383Z,38.25
2022-08-22T14:10:06.281Z,37.10
2022-08-22T14:12:51.108Z,37.19
2022-08-22T14:15:22.002Z,37.51
2022-08-22T14:17:52.036Z,37.97
2022-08-22T14:20:32.462Z,38.26
2022-08-22T14:23:05.272Z,37.54
2022-08-22T14:25:35.668Z,37.32
2022-08-22T14:28:09.050Z,36.17
2022-08-22T14:30:39.810Z,37.60
2022-08-22T14:33:13.757Z,37.70
2022-08-22T14:35:42.936Z,37.67
2022-08-22T14:38:17.853Z,37.74
2022-08-22T14:40:46.245Z,36.89
2022-08-22T14:43:22.477Z,37.20
2022-08-22T14:45:57.235Z,35.14
2022-08-22T14:48:33.145Z,36.55
2022-08-22T14:51:04.159Z,36.51
2022-08-22T14:53:34.708Z,36.42
2022-08-22T14:56:03.862Z,36.99
2022-08-22T14:58:34.039Z,37.10
2022-08-22T15:01:10.321Z,37.44
2022-08-22T15:03:38.845Z,37.11
2022-08-22T15:06:09.785Z,36.63
2022-08-22T15:08:48.270Z,35.36
2022-08-22T15:11:21.841Z,34.43
2022-08-22T15:13:54.439Z,33.52
2022-08-22T15:16:23.576Z,33.20
2022-08-22T15:18:51.739Z,33.06
2022-08-22T15:21:24.560Z,32.50
2022-08-22T15:23:55.535Z,32.26
2022-08-22T15:26:28.089Z,32.79
2022-08-22T15:29:04.328Z,33.09
2022-08-22T15:31:32.444Z,33.64
2022-08-22T15:34:07.025Z,33.00
2022-08-22T15:36:36.888Z,33.31
2022-08-22T15:39:23.132Z,33.24
2022-08-22T15:41:51.910Z,33.61
2022-08-22T15:44:32.463Z,33.94
2022-08-22T15:47:02.953Z,33.50
2022-08-22T15:49:32.422Z,31.21
2022-08-22T15:52:15.916Z,31.98
2022-08-22T15:55:06.517Z,32.79
2022-08-22T15:57:38.758Z,33.11
2022-08-22T16:00:10.652Z,33.29
2022-08-22T16:02:41.518Z,32.90
2022-08-22T16:05:23.878Z,32.98
2022-08-22T16:08:02.649Z,33.11
2022-08-22T16:10:32.130Z,32.69
2022-08-22T16:13:13.091Z,32.23
2022-08-22T16:15:56.850Z,32.57
2022-08-22T16:18:43.521Z,32.16
2022-08-22T16:21:12.014Z,32.13
2022-08-22T16:23:56.196Z,31.81
2022-08-22T16:26:24.414Z,31.79
2022-08-22T16:28:58.141Z,31.37
2022-08-22T16:31:28.478Z,31.52
2022-08-22T16:33:57.804Z,31.40
2022-08-22T16:36:40.447Z,31.01
2022-08-22T16:39:10.131Z,30.77
2022-08-22T16:41:40.245Z,30.25
2022-08-22T16:44:31.585Z,30.03
2022-08-22T16:47:10.291Z,29.67
2022-08-22T16:49:40.520Z,29.04
2022-08-22T16:52:26.586Z,28.85
2022-08-22T16:54:55.678Z,28.51
2022-08-22T16:57:24.617Z,28.55
2022-08-22T17:00:00.562Z,28.21
2022-08-22T17:02:39.225Z,28.05
2022-08-22T17:05:20.525Z,27.94
2022-08-22T17:07:54.958Z,27.40
2022-08-22T17:10:39.498Z,27.39
2022-08-22T17:13:14.665Z,27.30
2022-08-22T17:15:50.018Z,27.29
2022-08-22T17:18:28.188Z,26.88
2022-08-22T17:21:02.293Z,26.67
2022-08-22T17:23:34.779Z,26.48
2022-08-22T17:26:09.910Z,26.44
2022-08-22T17:28:41.254Z,26.45
2022-08-22T17:31:13.826Z,26.37
2022-08-22T17:34:05.490Z,26.41
2022-08-22T17:36:43.530Z,26.32
2022-08-22T17:39:17.815Z,26.24
2022-08-22T17:41:51.122Z,26.16
2022-08-22T17:44:22.451Z,26.01
2022-08-22T17:46:52.854Z,25.99
2022-08-22T17:49:22.995Z,25.80
2022-08-22T17:51:56.074Z,25.86
2022-08-22T17:54:29.664Z,25.77
2022-08-22T17:57:05.741Z,25.64
2022-08-22T17:59:37.208Z,25.52
2022-08-22T18:02:10.436Z,25.50
2022-08-22T18:04:45.544Z,25.44
2022-08-22T18:07:24.511Z,25.30
2022-08-22T18:09:54.632Z,25.18
2022-08-22T18:12:25.958Z,25.16
2022-08-22T18:14:56.390Z,25.04
2022-08-22T18:17:41.098Z,24.97
2022-08-22T18:20:12.165Z,24.83
2022-08-22T18:22:44.490Z,24.78
2022-08-22T18:25:27.727Z,24.65
2022-08-22T18:27:57.620Z,24.41
2022-08-22T18:30:27.697Z,24.39
2022-08-22T18:32:56.873Z,24.40
2022-08-22T18:35:28.829Z,24.36
2022-08-22T18:38:01.623Z,24.24
2022-08-22T18:40:44.354Z,24.18
2022-08-22T18:43:23.775Z,24.08
2022-08-22T18:45:58.194Z,23.94
2022-08-22T18:48:30.360Z,23.54
2022-08-22T18:51:16.290Z,23.72
2022-08-22T18:53:48.203Z,23.63
2022-08-22T18:56:21.429Z,23.62
2022-08-22T18:59:05.378Z,23.52
2022-08-22T19:01:44.449Z,23.44
2022-08-22T19:04:26.432Z,23.34
2022-08-22T19:07:05.847Z,23.29
2022-08-22T19:09:59.971Z,23.11
2022-08-22T19:12:37.243Z,23.07
2022-08-22T19:15:22.632Z,23.05
2022-08-22T19:18:03.658Z,23.01
2022-08-22T19:20:49.790Z,22.95
2022-08-22T19:23:35.938Z,22.90
2022-08-22T19:26:25.731Z,22.74
2022-08-22T19:28:53.825Z,22.69
2022-08-22T19:31:23.769Z,22.67
2022-08-22T19:34:11.251Z,22.63
2022-08-22T19:36:38.726Z,22.59
2022-08-22T19:39:09.011Z,22.52
2022-08-22T19:41:39.717Z,22.47
2022-08-22T19:44:09.835Z,22.43
2022-08-22T19:46:39.101Z,22.38
2022-08-22T19:49:07.696Z,22.32
2022-08-22T19:51:35.222Z,22.26
2022-08-22T19:54:16.762Z,22.20
2022-08-22T19:57:00.321Z,22.14
2022-08-22T19:59:32.567Z,22.03
2022-08-22T20:02:06.559Z,21.97
2022-08-22T20:04:39.691Z,21.92
2022-08-22T20:07:14.798Z,21.86
2022-08-22T20:09:46.500Z,21.79
2022-08-22T20:12:19.904Z,21.79
2022-08-22T20:14:48.349Z,21.72
2022-08-22T20:17:36.539Z,21.61
2022-08-22T20:20:34.502Z,21.55
2022-08-22T20:22:56.626Z,21.48
2022-08-22T20:25:43.187Z,21.44
2022-08-22T20:28:23.584Z,21.41
2022-08-22T20:30:51.431Z,21.32
2022-08-22T20:33:21.574Z,21.29
2022-08-22T20:35:53.148Z,21.27
2022-08-22T20:38:23.112Z,21.20
2022-08-22T20:40:56.632Z,21.17
2022-08-22T20:43:28.649Z,21.15
2022-08-22T20:46:02.120Z,21.08
2022-08-22T20:48:34.379Z,21.01
2022-08-22T20:51:03.919Z,20.94
2022-08-22T20:53:31.673Z,20.95
2022-08-22T20:55:59.521Z,20.93
2022-08-22T20:58:29.608Z,20.89
2022-08-22T21:00:59.897Z,20.88
2022-08-22T21:03:33.821Z,20.84
2022-08-22T21:06:10.353Z,20.82
2022-08-22T21:08:37.995Z,20.81
2022-08-22T21:11:24.371Z,20.79
2022-08-22T21:13:53.855Z,20.76
2022-08-22T21:16:22.529Z,20.78
2022-08-22T21:18:51.006Z,20.77
2022-08-22T21:21:20.707Z,20.79
2022-08-22T21:23:49.270Z,20.74
2022-08-22T21:26:23.357Z,20.75
2022-08-22T21:28:59.950Z,20.71
2022-08-22T21:31:29.550Z,20.69
2022-08-22T21:33:57.528Z,20.68
2022-08-22T21:36:27.234Z,20.65
2022-08-22T21:38:56.923Z,20.33
2022-08-22T21:41:25.604Z,20.62
2022-08-22T21:43:54.171Z,20.62
2022-08-22T21:46:27.292Z,20.63
2022-08-22T21:49:02.744Z,20.63
2022-08-22T21:51:39.297Z,20.62
2022-08-22T21:54:25.556Z,20.59
2022-08-22T21:56:54.170Z,20.57
2022-08-22T21:59:24.992Z,20.57
2022-08-22T22:01:55.552Z,20.57
2022-08-22T22:04:23.210Z,20.56
2022-08-22T22:06:50.684Z,20.58
2022-08-22T22:09:18.184Z,20.60
2022-08-22T22:11:45.673Z,20.56
2022-08-22T22:14:13.166Z,20.55
2022-08-22T22:16:40.620Z,20.50
2022-08-22T22:19:10.169Z,20.47
2022-08-22T22:21:38.537Z,20.44
2022-08-22T22:24:06.189Z,20.45
2022-08-22T22:26:33.677Z,20.45
2022-08-22T22:29:01.094Z,20.43
2022-08-22T22:31:28.603Z,20.42
2022-08-22T22:33:56.121Z,20.43
2022-08-22T22:36:27.612Z,20.43
2022-08-22T22:38:55.263Z,20.42
2022-08-22T22:41:25.346Z,20.34
2022-08-22T22:43:53.352Z,20.33
2022-08-22T22:46:21.266Z,20.28
2022-08-22T22:48:48.698Z,20.30
2022-08-22T22:51:16.465Z,20.28
2022-08-22T22:53:45.580Z,20.29
2022-08-22T22:56:14.146Z,20.26
2022-08-22T22:58:43.658Z,20.28
2022-08-22T23:01:13.211Z,20.27
2022-08-22T23:03:40.683Z,20.24
2022-08-22T23:06:11.024Z,20.25
2022-08-22T23:08:38.527Z,20.27
2022-08-22T23:11:11.330Z,20.28
2022-08-22T23:13:39.633Z,20.30
2022-08-22T23:16:10.498Z,20.31
2022-08-22T23:18:38.088Z,20.31
2022-08-22T23:21:12.972Z,20.29
2022-08-22T23:23:40.403Z,20.32
2022-08-22T23:26:08.124Z,20.31
2022-08-22T23:28:37.331Z,20.30
2022-08-22T23:31:12.490Z,20.31
2022-08-22T23:33:39.966Z,20.02
2022-08-22T23:36:11.545Z,20.29
2022-08-22T23:38:39.009Z,20.28
2022-08-22T23:41:09.791Z,20.26
2022-08-22T23:43:41.775Z,20.23
2022-08-22T23:46:09.201Z,20.22
2022-08-22T23:48:36.646Z,20.16
2022-08-22T23:51:04.285Z,20.11
2022-08-22T23:53:31.832Z,20.10
2022-08-22T23:56:09.091Z,20.06
2022-08-22T23:58:49.276Z,20.02
